Time;durP1;ratioP1;P1;durP2;ratioP2;P2;SDS_P1;SDS_P2;PMS_P1;PMS_P2;Temp;Humidity;BMP_temperature;BMP_pressure;BME280_temperature;BME280_humidity;BME280_pressure;Samples;Min_cycle;Max_cycle;Signal;HPM_P1;HPM_P2
2022/08/24 00:01:14;;;;;;;29.77;26.63;;;18.60;99.90;;;;;;6246943;23;20348;-80
2022/08/24 00:03:42;;;;;;;33.20;29.55;;;18.60;99.90;;;;;;6220111;23;20456;-80
2022/08/24 00:06:12;;;;;;;42.80;35.85;;;18.50;99.90;;;;;;6246460;23;20017;-80
2022/08/24 00:08:39;;;;;;;45.38;34.08;;;18.50;99.90;;;;;;6247020;23;20012;-80
2022/08/24 00:11:06;;;;;;;33.35;29.70;;;18.50;99.90;;;;;;6195952;23;20102;-80
2022/08/24 00:13:32;;;;;;;30.13;27.00;;;18.40;99.90;;;;;;6245136;23;20332;-80
2022/08/24 00:15:58;;;;;;;30.98;27.77;;;18.40;99.90;;;;;;6247733;23;20012;-80
2022/08/24 00:18:24;;;;;;;30.30;26.70;;;18.40;99.90;;;;;;6220143;23;20024;-80
2022/08/24 00:20:50;;;;;;;27.92;25.00;;;18.40;99.90;;;;;;6219669;23;20016;-80
2022/08/24 00:23:16;;;;;;;27.73;24.77;;;18.30;99.90;;;;;;6219807;23;20039;-80
2022/08/24 00:25:42;;;;;;;30.30;27.10;;;18.30;99.90;;;;;;6246816;23;20043;-80
2022/08/24 00:28:08;;;;;;;40.08;33.88;;;18.30;99.90;;;;;;6245864;23;20023;-80
2022/08/24 00:30:34;;;;;;;30.75;27.08;;;18.20;99.90;;;;;;6220433;23;20025;-80
2022/08/24 00:33:00;;;;;;;33.47;28.08;;;18.20;99.90;;;;;;6219904;23;20016;-80
2022/08/24 00:35:27;;;;;;;37.08;27.10;;;18.10;99.90;;;;;;6246087;23;20539;-80
2022/08/24 00:37:53;;;;;;;29.23;25.02;;;18.10;99.90;;;;;;6220279;23;20050;-80
2022/08/24 00:40:32;;;;;;;43.35;30.40;;;18.10;99.90;;;;;;6247094;23;20103;-80
2022/08/24 00:43:00;;;;;;;32.75;28.95;;;18.00;99.90;;;;;;6219070;23;20479;-80
2022/08/24 00:45:26;;;;;;;32.08;29.05;;;18.00;99.90;;;;;;6219361;23;20020;-80
2022/08/24 00:48:06;;;;;;;36.83;30.02;;;17.90;99.90;;;;;;6195021;23;20016;-80
2022/08/24 00:50:39;;;;;;;41.67;26.88;;;17.90;99.90;;;;;;6219066;23;20091;-80
2022/08/24 00:53:10;;;;;;;28.85;25.27;;;17.90;99.90;;;;;;6194873;23;20023;-80
2022/08/24 00:55:40;;;;;;;23.00;20.58;;;17.90;99.90;;;;;;6193475;23;20020;-80
2022/08/24 00:58:15;;;;;;;30.42;24.88;;;17.90;99.90;;;;;;6247348;23;20066;-80
2022/08/24 01:00:47;;;;;;;42.08;33.72;;;17.90;99.90;;;;;;6219338;23;20020;-80
2022/08/24 01:03:13;;;;;;;27.52;24.73;;;17.90;99.90;;;;;;6219183;23;20062;-80
2022/08/24 01:05:39;;;;;;;19.83;17.13;;;17.80;99.90;;;;;;6246309;23;20012;-80
2022/08/24 01:08:07;;;;;;;19.52;17.58;;;17.80;99.90;;;;;;6219645;23;20020;-80
2022/08/24 01:10:40;;;;;;;21.15;18.48;;;17.70;99.90;;;;;;6218586;23;20454;-80
2022/08/24 01:13:08;;;;;;;24.77;22.17;;;17.70;99.90;;;;;;6246894;23;20017;-80
2022/08/24 01:15:36;;;;;;;28.40;25.52;;;17.70;99.90;;;;;;6219134;23;20020;-80
2022/08/24 01:21:19;;;;;;;32.03;23.20;;;17.70;99.90;;;;;;6219203;23;20058;-80
2022/08/24 01:23:48;;;;;;;27.48;22.73;;;17.70;99.90;;;;;;6244137;22;20409;-80
2022/08/24 01:26:25;;;;;;;25.13;22.48;;;17.70;99.90;;;;;;6220266;23;20403;-80
2022/08/24 01:28:58;;;;;;;35.08;28.60;;;17.60;99.90;;;;;;6219078;23;20075;-80
2022/08/24 01:31:24;;;;;;;33.22;28.52;;;17.70;99.90;;;;;;6244833;23;20042;-80
2022/08/24 01:33:53;;;;;;;31.30;27.90;;;17.60;99.90;;;;;;6219715;23;20039;-81
2022/08/24 01:36:38;;;;;;;32.80;27.42;;;17.60;99.90;;;;;;6246982;23;20013;-80
2022/08/24 01:39:11;;;;;;;;;;;17.60;99.90;;;;;;6218993;23;20027;-80
2022/08/24 01:41:37;;;;;;;34.45;27.92;;;17.50;99.90;;;;;;6194775;23;20334;-80
2022/08/24 01:44:03;;;;;;;30.33;25.95;;;17.50;99.90;;;;;;6219343;23;20094;-80
2022/08/24 01:46:28;;;;;;;39.58;30.23;;;17.50;99.90;;;;;;6217197;23;20087;-80
2022/08/24 01:48:56;;;;;;;29.60;26.48;;;17.50;99.90;;;;;;6246254;23;20043;-80
2022/08/24 01:51:23;;;;;;;29.67;25.50;;;17.50;99.90;;;;;;6219246;23;20087;-80
2022/08/24 01:53:49;;;;;;;25.45;22.80;;;17.50;99.90;;;;;;6218778;23;20082;-79
2022/08/24 01:56:15;;;;;;;28.65;24.88;;;17.50;99.90;;;;;;6219143;23;20020;-80
2022/08/24 01:58:45;;;;;;;27.80;23.30;;;17.50;99.90;;;;;;6245534;23;20335;-80
2022/08/24 02:01:12;;;;;;;27.13;24.30;;;17.50;99.90;;;;;;6219146;23;20047;-80
2022/08/24 02:03:38;;;;;;;22.98;20.50;;;17.40;99.90;;;;;;6246175;23;20016;-80
2022/08/24 02:06:04;;;;;;;21.85;19.70;;;17.50;99.90;;;;;;6217951;23;20334;-80
2022/08/24 02:08:35;;;;;;;24.90;20.60;;;17.40;99.90;;;;;;6193965;23;20016;-80
2022/08/24 02:11:04;;;;;;;25.05;21.15;;;17.40;99.90;;;;;;6246344;23;20016;-80
2022/08/24 02:13:30;;;;;;;19.85;17.85;;;17.40;99.90;;;;;;6193538;23;20016;-80
2022/08/24 02:15:56;;;;;;;20.45;18.38;;;17.30;99.90;;;;;;6219100;23;20016;-80
2022/08/24 02:18:22;;;;;;;19.15;17.30;;;17.30;99.90;;;;;;6219392;23;20062;-80
2022/08/24 02:20:48;;;;;;;19.58;17.67;;;17.30;99.90;;;;;;6244876;23;20475;-80
2022/08/24 02:23:14;;;;;;;18.98;17.08;;;17.30;99.90;;;;;;6219190;23;20069;-80
2022/08/24 02:25:40;;;;;;;20.85;17.20;;;17.30;99.90;;;;;;6218851;23;20367;-80
2022/08/24 02:28:06;;;;;;;21.83;19.73;;;17.30;99.90;;;;;;6218543;23;20452;-81
2022/08/24 02:30:32;;;;;;;20.48;18.58;;;17.20;99.90;;;;;;6245791;23;20008;-81
2022/08/24 02:32:59;;;;;;;18.58;16.88;;;17.20;99.90;;;;;;6245815;23;20479;-81
2022/08/24 02:35:25;;;;;;;20.33;18.13;;;17.20;99.90;;;;;;6245163;23;20421;-81
2022/08/24 02:37:51;;;;;;;21.73;19.48;;;17.20;99.90;;;;;;6217443;23;20137;-81
2022/08/24 02:40:17;;;;;;;19.50;17.58;;;17.20;99.90;;;;;;6193938;23;20071;-81
2022/08/24 02:42:43;;;;;;;16.48;14.75;;;17.20;99.90;;;;;;6217939;23;20019;-81
2022/08/24 02:45:09;;;;;;;17.55;14.27;;;17.10;99.90;;;;;;6218755;23;20020;-80
2022/08/24 02:47:35;;;;;;;18.73;14.18;;;17.10;99.90;;;;;;6218912;23;20051;-81
2022/08/24 02:50:03;;;;;;;21.33;12.70;;;17.10;99.90;;;;;;6193287;23;20317;-81
2022/08/24 02:52:29;;;;;;;18.25;14.10;;;17.10;99.90;;;;;;6217972;23;20028;-81
2022/08/24 02:54:55;;;;;;;22.70;14.15;;;17.00;99.90;;;;;;6245472;23;20042;-81
2022/08/24 02:57:20;;;;;;;13.48;12.30;;;17.00;99.90;;;;;;6245952;23;20336;-81
2022/08/24 02:59:46;;;;;;;13.95;12.68;;;17.00;99.90;;;;;;6246326;23;20087;-81
2022/08/24 03:02:12;;;;;;;15.05;13.65;;;17.00;99.90;;;;;;6192740;23;20065;-81
2022/08/24 03:04:37;;;;;;;14.60;13.25;;;17.00;99.90;;;;;;6219779;23;20458;-81
2022/08/24 03:07:03;;;;;;;14.10;12.90;;;16.90;99.90;;;;;;6245556;23;20506;-80
2022/08/24 03:09:29;;;;;;;15.15;13.85;;;16.90;99.90;;;;;;6217901;23;20065;-81
2022/08/24 03:11:55;;;;;;;14.63;13.23;;;17.00;99.90;;;;;;6219815;23;20090;-81
2022/08/24 03:14:21;;;;;;;15.00;12.90;;;16.90;99.90;;;;;;6221221;23;20386;-81
2022/08/24 03:16:46;;;;;;;16.48;14.98;;;16.90;99.90;;;;;;6246859;23;20012;-81
2022/08/24 03:19:14;;;;;;;17.48;13.73;;;16.90;99.90;;;;;;6196148;23;20458;-80
2022/08/24 03:21:40;;;;;;;14.50;13.02;;;16.90;99.90;;;;;;6219647;23;20024;-80
2022/08/24 03:24:07;;;;;;;12.63;11.52;;;16.80;99.90;;;;;;6246843;23;20016;-80
2022/08/24 03:26:33;;;;;;;14.25;11.63;;;16.70;99.90;;;;;;6195502;23;20020;-81
2022/08/24 03:28:59;;;;;;;13.60;11.48;;;16.70;99.90;;;;;;6195964;23;20020;-81
2022/08/24 03:31:25;;;;;;;13.93;12.30;;;16.70;99.90;;;;;;6246948;23;20082;-81
2022/08/24 03:33:51;;;;;;;12.88;11.48;;;16.60;99.90;;;;;;6221509;23;20070;-81
2022/08/24 03:36:17;;;;;;;15.65;11.35;;;16.60;99.90;;;;;;6219892;23;20016;-80
2022/08/24 03:38:43;;;;;;;13.68;11.27;;;16.60;99.90;;;;;;6247147;23;20051;-81
2022/08/24 03:41:09;;;;;;;13.20;11.68;;;16.60;99.90;;;;;;6247299;23;20421;-81
2022/08/24 03:44:11;;;;;;;10.27;9.27;;;16.60;99.90;;;;;;6220734;23;20062;-81
2022/08/24 03:46:35;;;;;;;17.05;15.00;;;16.60;99.90;;;;;;6215994;23;20028;-81
2022/08/24 03:49:03;;;;;;;16.58;14.57;;;16.50;99.90;;;;;;6248171;23;20012;-81
2022/08/24 03:51:29;;;;;;;20.15;17.77;;;16.60;99.90;;;;;;6218084;23;20302;-81
2022/08/24 03:53:57;;;;;;;21.35;18.98;;;16.60;99.90;;;;;;6220813;23;20009;-81
2022/08/24 03:56:23;;;;;;;20.65;17.67;;;16.60;99.90;;;;;;6195259;23;20500;-81
2022/08/24 03:58:49;;;;;;;22.85;17.60;;;16.70;99.90;;;;;;6219832;23;20395;-81
2022/08/24 04:01:16;;;;;;;20.00;18.02;;;16.70;99.90;;;;;;6220145;23;20077;-81
2022/08/24 04:03:43;;;;;;;16.35;14.85;;;16.70;99.90;;;;;;6220737;23;20091;-81
2022/08/24 04:06:11;;;;;;;19.73;17.83;;;16.70;99.90;;;;;;6219128;23;20020;-81
2022/08/24 04:08:36;;;;;;;17.50;15.68;;;16.70;99.90;;;;;;6195093;23;20476;-81
2022/08/24 04:11:03;;;;;;;21.13;16.23;;;16.70;99.90;;;;;;6220092;23;20017;-81
2022/08/24 04:13:30;;;;;;;21.15;18.90;;;16.70;99.90;;;;;;6246148;23;20012;-81
2022/08/24 04:16:08;;;;;;;22.63;19.60;;;16.70;99.90;;;;;;6195041;23;20078;-81
2022/08/24 04:18:34;;;;;;;18.60;16.83;;;16.70;99.90;;;;;;6220566;23;20059;-81
2022/08/24 04:21:00;;;;;;;18.58;16.65;;;16.70;99.90;;;;;;6246068;23;20023;-81
2022/08/24 04:23:26;;;;;;;19.08;17.00;;;16.70;99.90;;;;;;6219880;23;20039;-81
2022/08/24 04:25:52;;;;;;;20.90;17.80;;;16.70;99.90;;;;;;6247206;23;20328;-81
2022/08/24 04:28:19;;;;;;;19.08;16.92;;;16.70;99.90;;;;;;6245796;23;20020;-82
2022/08/24 04:30:49;;;;;;;23.40;18.80;;;16.70;99.90;;;;;;6219923;23;20016;-81
2022/08/24 04:33:16;;;;;;;20.55;18.05;;;16.60;99.90;;;;;;6246725;23;20016;-80
2022/08/24 04:35:44;;;;;;;20.35;16.02;;;16.60;99.90;;;;;;6246693;23;20016;-81
2022/08/24 04:38:10;;;;;;;20.48;15.02;;;16.60;99.90;;;;;;6194180;23;20348;-80
2022/08/24 04:40:41;;;;;;;22.42;17.50;;;16.60;99.90;;;;;;6220135;23;20024;-81
2022/08/24 04:43:07;;;;;;;25.90;23.08;;;16.60;99.90;;;;;;6220229;23;20022;-80
2022/08/24 04:45:38;;;;;;;26.10;21.90;;;16.60;99.90;;;;;;6246946;23;20016;-80
2022/08/24 04:48:04;;;;;;;21.58;14.20;;;16.60;99.90;;;;;;6193913;23;20016;-81
2022/08/24 04:50:34;;;;;;;24.70;15.43;;;16.60;99.90;;;;;;6246988;23;20018;-81
2022/08/24 04:52:59;;;;;;;22.30;15.40;;;16.50;99.90;;;;;;6194126;23;20456;-81
2022/08/24 04:55:25;;;;;;;17.60;14.30;;;16.50;99.90;;;;;;6246026;23;20117;-81
2022/08/24 04:57:51;;;;;;;19.55;13.60;;;16.50;99.90;;;;;;6219692;23;20051;-81
2022/08/24 05:00:17;;;;;;;18.10;16.15;;;16.50;99.90;;;;;;6220199;23;20166;-81
2022/08/24 05:02:42;;;;;;;18.73;16.70;;;16.50;99.90;;;;;;6218724;23;20313;-82
2022/08/24 05:05:09;;;;;;;23.80;17.27;;;16.50;99.90;;;;;;6220116;23;20070;-82
2022/08/24 05:07:35;;;;;;;20.50;17.58;;;16.50;99.90;;;;;;6218774;23;20020;-83
2022/08/24 05:10:02;;;;;;;21.63;17.63;;;16.60;99.90;;;;;;6245094;23;20451;-83
2022/08/24 05:12:28;;;;;;;20.83;18.48;;;16.60;99.90;;;;;;6194514;23;20024;-82
2022/08/24 05:14:54;;;;;;;22.13;19.70;;;16.60;99.90;;;;;;6247196;23;20012;-82
2022/08/24 05:17:20;;;;;;;26.10;20.92;;;16.60;99.90;;;;;;6217593;23;20043;-82
2022/08/24 05:19:46;;;;;;;24.10;21.17;;;16.70;99.90;;;;;;6219693;23;20012;-82
2022/08/24 05:22:11;;;;;;;22.65;19.08;;;16.70;99.90;;;;;;6246542;23;20038;-82
2022/08/24 05:24:37;;;;;;;22.65;20.25;;;16.70;99.90;;;;;;6218357;23;20344;-82
2022/08/24 05:27:03;;;;;;;21.48;17.90;;;16.70;99.90;;;;;;6219603;23;20016;-82
2022/08/24 05:29:32;;;;;;;33.90;19.55;;;16.70;99.90;;;;;;6245605;23;20095;-82
2022/08/24 05:31:58;;;;;;;22.83;20.35;;;16.80;99.90;;;;;;6194243;23;20016;-82
2022/08/24 05:34:24;;;;;;;21.00;18.88;;;16.80;99.90;;;;;;6219401;23;20514;-82
2022/08/24 05:36:50;;;;;;;19.98;17.92;;;16.90;99.90;;;;;;6218389;23;20023;-82
2022/08/24 05:39:16;;;;;;;23.63;19.83;;;16.90;99.90;;;;;;6220100;23;20012;-82
2022/08/24 05:41:43;;;;;;;20.75;18.40;;;16.90;99.90;;;;;;6245632;23;20086;-82
2022/08/24 05:44:10;;;;;;;30.35;19.85;;;17.00;99.90;;;;;;6218620;23;20078;-81
2022/08/24 05:46:36;;;;;;;23.25;18.20;;;17.00;99.90;;;;;;6218404;23;20016;-82
2022/08/24 05:49:02;;;;;;;26.63;18.33;;;17.00;99.90;;;;;;6219208;23;20021;-81
2022/08/24 05:51:28;;;;;;;33.83;21.98;;;17.10;99.90;;;;;;6218199;23;20563;-82
2022/08/24 05:53:55;;;;;;;29.10;18.13;;;17.20;99.90;;;;;;6246319;23;20008;-81
2022/08/24 05:56:21;;;;;;;24.88;18.67;;;17.20;99.90;;;;;;6219080;23;20024;-81
2022/08/24 05:58:47;;;;;;;33.80;20.75;;;17.30;99.90;;;;;;6218112;23;20008;-81
2022/08/24 06:01:22;;;;;;;48.17;20.38;;;17.30;99.90;;;;;;6245902;23;20048;-80
2022/08/24 06:03:49;;;;;;;28.60;22.58;;;17.50;99.90;;;;;;6219261;23;20325;-80
2022/08/24 06:06:16;;;;;;;42.08;22.52;;;17.60;99.90;;;;;;6217431;23;20111;-80
2022/08/24 06:08:45;;;;;;;26.15;22.38;;;17.70;99.90;;;;;;6218264;23;20344;-80
2022/08/24 06:11:12;;;;;;;38.50;29.65;;;17.80;99.90;;;;;;6219139;23;20012;-80
2022/08/24 06:13:38;;;;;;;36.15;30.80;;;17.90;99.90;;;;;;6218225;23;20020;-80
2022/08/24 06:16:10;;;;;;;32.53;28.98;;;17.90;99.90;;;;;;6246138;23;20014;-80
2022/08/24 06:18:37;;;;;;;34.22;26.70;;;18.10;99.90;;;;;;6246593;23;20015;-80
2022/08/24 06:21:08;;;;;;;35.47;31.65;;;18.20;99.90;;;;;;6218002;23;20074;-80
2022/08/24 06:23:35;;;;;;;39.38;33.08;;;18.30;99.90;;;;;;6218515;23;20059;-80
2022/08/24 06:28:48;;;;;;;34.08;30.55;;;18.50;99.90;;;;;;6245937;23;20103;-80
2022/08/24 06:31:14;;;;;;;34.08;29.27;;;18.60;99.90;;;;;;6245177;23;20048;-80
2022/08/24 06:33:40;;;;;;;35.53;29.95;;;18.70;99.90;;;;;;6245553;23;20044;-80
2022/08/24 06:36:06;;;;;;;30.10;27.10;;;18.80;99.90;;;;;;6218967;23;20012;-80
2022/08/24 06:38:33;;;;;;;34.13;28.65;;;18.90;99.90;;;;;;6244887;23;20309;-80
2022/08/24 06:40:59;;;;;;;31.92;28.58;;;19.00;99.90;;;;;;6245492;23;20479;-80
2022/08/24 06:43:24;;;;;;;32.88;28.45;;;19.10;99.90;;;;;;6217810;23;20020;-80
2022/08/24 06:45:52;;;;;;;39.58;27.77;;;19.20;99.90;;;;;;6247453;23;20345;-80
2022/08/24 06:48:18;;;;;;;28.33;24.70;;;19.20;99.90;;;;;;6220076;23;20105;-81
2022/08/24 06:50:44;;;;;;;28.95;24.77;;;19.30;99.90;;;;;;6247694;23;20023;-80
2022/08/24 06:53:13;;;;;;;27.38;24.52;;;19.40;99.90;;;;;;6195571;23;20020;-80
2022/08/24 06:55:51;;;;;;;26.52;23.70;;;19.50;99.90;;;;;;6247516;23;20020;-80
2022/08/24 06:58:18;;;;;;;29.38;24.42;;;19.50;99.90;;;;;;6220460;23;20454;-80
2022/08/24 07:00:44;;;;;;;28.17;25.17;;;19.60;99.90;;;;;;6221253;23;20022;-80
2022/08/24 07:03:10;;;;;;;25.92;23.13;;;19.70;99.90;;;;;;6247016;23;20031;-81
2022/08/24 07:05:36;;;;;;;26.42;23.60;;;19.80;99.90;;;;;;6248037;23;20016;-80
2022/08/24 07:08:03;;;;;;;28.75;23.73;;;19.90;99.90;;;;;;6219941;23;20051;-81
2022/08/24 07:10:29;;;;;;;26.00;23.27;;;20.00;99.90;;;;;;6247857;23;20020;-81
2022/08/24 07:12:56;;;;;;;30.33;23.10;;;20.10;99.90;;;;;;6219954;23;20095;-82
2022/08/24 07:15:22;;;;;;;27.10;22.35;;;20.20;99.90;;;;;;6246643;23;20027;-81
2022/08/24 07:17:48;;;;;;;31.92;23.13;;;20.30;99.90;;;;;;6247777;23;20387;-81
2022/08/24 07:20:15;;;;;;;27.30;21.27;;;20.40;99.90;;;;;;6220662;23;20440;-80
2022/08/24 07:22:40;;;;;;;25.38;20.88;;;20.40;99.90;;;;;;6219153;23;20059;-80
2022/08/24 07:25:07;;;;;;;25.38;20.67;;;20.50;99.90;;;;;;6196258;23;20016;-80
2022/08/24 07:27:33;;;;;;;22.42;20.17;;;20.60;99.90;;;;;;6247309;23;20525;-80
2022/08/24 07:29:58;;;;;;;22.58;19.95;;;20.60;99.90;;;;;;6219609;23;20012;-80
2022/08/24 07:32:24;;;;;;;20.85;18.75;;;20.70;99.90;;;;;;6220967;23;20139;-80
2022/08/24 07:34:50;;;;;;;21.90;18.55;;;20.80;99.90;;;;;;6247276;23;20012;-80
2022/08/24 07:37:16;;;;;;;21.25;17.25;;;20.80;99.90;;;;;;6246809;23;20051;-80
2022/08/24 07:39:42;;;;;;;26.33;17.35;;;20.90;99.90;;;;;;6247636;23;20016;-80
2022/08/24 07:42:08;;;;;;;22.90;17.48;;;21.00;99.90;;;;;;6246325;23;20091;-80
2022/08/24 07:44:34;;;;;;;23.83;16.80;;;21.10;99.90;;;;;;6219698;23;20043;-80
2022/08/24 07:47:00;;;;;;;18.15;15.10;;;21.20;99.90;;;;;;6194743;23;20023;-80
2022/08/24 07:49:26;;;;;;;20.15;14.48;;;21.30;99.90;;;;;;6220403;23;20012;-80
2022/08/24 07:51:52;;;;;;;18.55;15.32;;;21.40;99.90;;;;;;6194854;23;20101;-80
2022/08/24 07:54:19;;;;;;;18.55;14.15;;;21.50;99.90;;;;;;6220718;23;20012;-80
2022/08/24 07:56:45;;;;;;;15.25;13.00;;;21.60;99.90;;;;;;6195179;23;20012;-80
2022/08/24 07:59:11;;;;;;;19.70;11.80;;;21.70;99.90;;;;;;6218170;23;20054;-80
2022/08/24 08:01:37;;;;;;;15.30;12.60;;;21.80;99.90;;;;;;6219328;23;20016;-80
2022/08/24 08:04:04;;;;;;;14.50;10.75;;;21.80;99.90;;;;;;6220732;23;20448;-81
2022/08/24 08:06:30;;;;;;;17.85;11.40;;;21.90;99.90;;;;;;6219129;23;20138;-80
2022/08/24 08:08:55;;;;;;;14.40;10.07;;;22.00;99.90;;;;;;6220536;23;20039;-80
2022/08/24 08:11:21;;;;;;;14.75;10.05;;;22.00;99.90;;;;;;6219399;23;20019;-80
2022/08/24 08:13:47;;;;;;;19.23;11.07;;;22.00;99.90;;;;;;6220096;23;20018;-80
2022/08/24 08:16:14;;;;;;;14.80;9.90;;;22.00;99.90;;;;;;6194995;23;20099;-80
2022/08/24 08:18:39;;;;;;;17.60;8.80;;;22.10;99.90;;;;;;6219478;23;20020;-81
2022/08/24 08:24:13;;;;;;;11.73;8.40;;;22.10;99.90;;;;;;6220028;23;20345;-80
2022/08/24 08:26:35;;;;;;;10.80;8.88;;;22.30;99.90;;;;;;6218934;23;20460;-80
2022/08/24 08:29:01;;;;;;;12.30;9.40;;;22.30;99.90;;;;;;6246692;23;20069;-80
2022/08/24 08:31:27;;;;;;;13.15;9.07;;;22.40;99.90;;;;;;6246706;23;20027;-80
2022/08/24 08:33:53;;;;;;;13.15;7.72;;;22.50;99.90;;;;;;6246766;23;20016;-81
2022/08/24 08:36:21;;;;;;;8.85;6.60;;;22.50;99.90;;;;;;6219830;23;20484;-80
2022/08/24 08:38:48;;;;;;;10.48;5.75;;;22.60;99.90;;;;;;6195340;23;20087;-81
2022/08/24 08:41:16;;;;;;;7.15;4.53;;;22.70;99.90;;;;;;6218908;23;20016;-80
2022/08/24 08:43:51;;;;;;;12.60;6.85;;;22.70;99.90;;;;;;6219963;23;20444;-81
2022/08/24 08:46:38;;;;;;;8.63;6.72;;;22.80;99.90;;;;;;6246930;23;20023;-81
2022/08/24 08:49:14;;;;;;;8.27;5.55;;;22.80;99.90;;;;;;6219930;23;20050;-81
2022/08/24 08:51:55;;;;;;;10.60;7.20;;;23.00;99.90;;;;;;6194517;23;20047;-80
2022/08/24 08:54:56;;;;;;;9.68;5.40;;;23.00;99.90;;;;;;6219328;23;20440;-80
2022/08/24 08:57:52;;;;;;;11.23;4.88;;;23.20;99.90;;;;;;6219459;23;20020;-82
2022/08/24 09:00:23;;;;;;;10.85;6.43;;;23.30;99.90;;;;;;6246853;23;20074;-81
2022/08/24 09:03:10;;;;;;;9.50;5.32;;;23.30;99.90;;;;;;6218740;23;20016;-81
2022/08/24 09:06:01;;;;;;;13.02;5.05;;;23.40;99.90;;;;;;6245336;23;20016;-80
2022/08/24 09:08:27;;;;;;;7.38;5.40;;;23.50;99.90;;;;;;6218620;23;20035;-80
2022/08/24 09:11:02;;;;;;;7.88;4.38;;;23.60;99.90;;;;;;6246765;23;20448;-81
2022/08/24 09:13:49;;;;;;;8.32;4.45;;;23.70;99.90;;;;;;6245491;23;20440;-80
2022/08/24 09:16:28;;;;;;;6.07;4.13;;;23.80;99.90;;;;;;6218299;23;20031;-80
2022/08/24 09:19:27;;;;;;;8.00;4.68;;;23.80;99.90;;;;;;6193937;23;20016;-80
2022/08/24 09:22:14;;;;;;;4.97;3.70;;;23.90;99.90;;;;;;6217735;23;20020;-80
2022/08/24 09:24:46;;;;;;;7.40;5.55;;;23.90;99.90;;;;;;6246073;22;20456;-82
2022/08/24 09:28:00;;;;;;;5.95;3.78;;;24.00;99.90;;;;;;6194221;23;20071;-80
2022/08/24 09:30:49;;;;;;;12.63;5.00;;;24.10;99.90;;;;;;6174631;23;20101;-80
2022/08/24 09:33:23;;;;;;;7.88;4.32;;;24.20;99.90;;;;;;6174159;23;20020;-79
2022/08/24 09:36:06;;;;;;;10.82;4.13;;;24.20;99.90;;;;;;6245871;23;20038;-79
2022/08/24 09:39:07;;;;;;;6.22;4.10;;;24.30;99.90;;;;;;6246064;23;20019;-78
2022/08/24 09:41:35;;;;;;;9.60;3.13;;;24.30;99.90;;;;;;6181741;23;20062;-79
2022/08/24 09:44:29;;;;;;;9.35;3.60;;;24.30;99.90;;;;;;6218842;23;20016;-79
2022/08/24 09:47:11;;;;;;;11.07;3.63;;;24.50;99.90;;;;;;6219150;23;20027;-79
2022/08/24 09:49:55;;;;;;;5.40;2.65;;;24.60;99.90;;;;;;6219439;23;20087;-79
2022/08/24 09:52:40;;;;;;;6.10;2.88;;;24.70;99.90;;;;;;6219783;23;20016;-79
2022/08/24 09:55:14;;;;;;;4.82;2.50;;;24.70;99.90;;;;;;6245951;23;20344;-79
2022/08/24 09:57:59;;;;;;;6.90;2.72;;;24.90;99.90;;;;;;6218366;23;20016;-79
2022/08/24 10:00:28;;;;;;;8.15;2.40;;;24.90;99.90;;;;;;6246891;23;20039;-79
2022/08/24 10:03:11;;;;;;;12.48;2.53;;;24.90;99.90;;;;;;6246611;23;20066;-79
2022/08/24 10:05:53;;;;;;;6.20;2.70;;;25.00;99.90;;;;;;6218649;23;20077;-79
2022/08/24 10:08:34;;;;;;;6.82;3.30;;;25.10;99.90;;;;;;6218963;23;20020;-79
2022/08/24 10:11:25;;;;;;;3.35;2.15;;;25.10;99.90;;;;;;6245415;23;20020;-79
2022/08/24 10:14:24;;;;;;;3.13;2.42;;;25.20;99.90;;;;;;6228553;23;20373;-79
2022/08/24 10:16:50;;;;;;;4.78;1.92;;;25.30;99.90;;;;;;6246251;23;20121;-79
2022/08/24 10:19:46;;;;;;;2.78;1.70;;;25.30;99.90;;;;;;6217644;23;20043;-79
2022/08/24 10:22:13;;;;;;;4.07;1.75;;;25.40;99.90;;;;;;6242818;23;20016;-79
2022/08/24 10:25:16;;;;;;;6.93;1.90;;;25.50;99.90;;;;;;6193672;23;20339;-79
2022/08/24 10:27:44;;;;;;;6.55;2.10;;;25.50;99.90;;;;;;6245542;23;20475;-79
2022/08/24 10:30:23;;;;;;;3.63;1.95;;;25.60;99.90;;;;;;6219364;23;20094;-79
2022/08/24 10:33:12;;;;;;;5.35;1.85;;;25.70;99.90;;;;;;6244719;23;20024;-79
2022/08/24 10:36:02;;;;;;;8.25;2.15;;;25.70;99.90;;;;;;6246590;23;20074;-79
2022/08/24 10:41:48;;;;;;;6.43;2.30;;;25.90;99.90;;;;;;6218484;23;20024;-78
2022/08/24 10:44:39;;;;;;;3.50;2.08;;;26.00;99.90;;;;;;6246645;23;20013;-79
2022/08/24 10:47:35;;;;;;;5.10;1.70;;;26.00;99.90;;;;;;6244931;23;20020;-79
2022/08/24 10:50:28;;;;;;;4.47;1.75;;;26.10;99.90;;;;;;6191547;23;20453;-79
2022/08/24 10:53:12;;;;;;;3.22;1.63;;;26.20;99.90;;;;;;6218619;23;20169;-79
2022/08/24 10:55:38;;;;;;;4.00;1.65;;;26.20;99.90;;;;;;6245782;23;20048;-79
2022/08/24 10:58:30;;;;;;;5.18;1.70;;;26.20;99.90;;;;;;6245905;23;20341;-78
2022/08/24 11:01:20;;;;;;;5.32;1.90;;;26.30;99.90;;;;;;6218428;23;20019;-79
2022/08/24 11:04:00;;;;;;;3.42;1.95;;;26.40;99.90;;;;;;6246064;23;20023;-79
2022/08/24 11:06:33;;;;;;;3.25;1.58;;;26.40;99.90;;;;;;6219633;23;20147;-79
2022/08/24 11:09:23;;;;;;;2.92;1.15;;;26.50;99.90;;;;;;6217522;23;20367;-79
2022/08/24 11:11:49;;;;;;;4.40;1.45;;;26.50;99.90;;;;;;6246162;23;20020;-79
2022/08/24 11:14:15;;;;;;;8.10;1.42;;;26.60;99.90;;;;;;6217695;23;20420;-79
2022/08/24 11:16:43;;;;;;;6.00;2.13;;;26.70;99.90;;;;;;6219719;23;20022;-79
2022/08/24 11:19:31;;;;;;;6.78;2.33;;;26.60;99.90;;;;;;6218816;23;20031;-79
2022/08/24 11:22:00;;;;;;;2.53;1.38;;;26.60;99.90;;;;;;6218656;23;20016;-79
2022/08/24 11:24:35;;;;;;;4.18;1.88;;;26.60;99.90;;;;;;6244367;23;20043;-80
2022/08/24 11:27:16;;;;;;;2.53;1.40;;;26.60;99.90;;;;;;6246201;23;20162;-80
2022/08/24 11:29:51;;;;;;;2.95;1.35;;;26.60;99.90;;;;;;6217647;23;20064;-80
2022/08/24 11:32:41;;;;;;;2.90;1.67;;;26.70;99.90;;;;;;6220520;23;20504;-79
2022/08/24 11:35:22;;;;;;;6.20;1.08;;;26.80;99.90;;;;;;6220501;23;20016;-80
2022/08/24 11:37:50;;;;;;;2.75;1.30;;;26.90;99.90;;;;;;6246035;23;20013;-80
2022/08/24 11:40:19;;;;;;;5.13;1.38;;;27.00;99.90;;;;;;6220089;23;20024;-80
2022/08/24 11:43:15;;;;;;;3.92;1.20;;;27.10;99.90;;;;;;6246543;23;20012;-80
2022/08/24 11:46:03;;;;;;;2.03;1.15;;;27.10;99.90;;;;;;6247568;23;20016;-79
2022/08/24 11:48:46;;;;;;;1.75;1.17;;;27.00;99.90;;;;;;6247317;23;20087;-80
2022/08/24 11:51:51;;;;;;;4.70;1.60;;;26.90;99.90;;;;;;6219370;23;20023;-80
2022/08/24 11:54:29;;;;;;;7.43;1.35;;;26.90;99.90;;;;;;6186429;23;20078;-80
2022/08/24 11:57:30;;;;;;;2.88;0.90;;;26.90;99.90;;;;;;6245750;23;20012;-80
2022/08/24 12:00:09;;;;;;;1.88;0.80;;;26.90;99.90;;;;;;6161822;23;20444;-80
2022/08/24 12:02:55;;;;;;;13.90;1.20;;;26.90;99.90;;;;;;6247380;23;20329;-79
2022/08/24 12:05:27;;;;;;;2.25;0.90;;;26.90;99.90;;;;;;6219957;23;20027;-79
2022/08/24 12:08:22;;;;;;;1.25;0.73;;;26.90;99.90;;;;;;6219909;23;20016;-79
2022/08/24 12:11:02;;;;;;;1.23;0.88;;;27.00;99.90;;;;;;6244414;23;20024;-79
2022/08/24 12:13:53;;;;;;;2.28;0.90;;;27.00;99.90;;;;;;6220128;23;20020;-79
2022/08/24 12:16:32;;;;;;;2.08;0.90;;;27.10;99.90;;;;;;6220097;23;20055;-79
2022/08/24 12:19:03;;;;;;;3.05;1.08;;;27.10;99.90;;;;;;6219643;23;20102;-79
2022/08/24 12:21:32;;;;;;;1.55;1.00;;;27.10;99.90;;;;;;6220050;23;20348;-79
2022/08/24 12:24:15;;;;;;;2.85;1.42;;;27.20;99.90;;;;;;6247361;22;20063;-79
2022/08/24 12:26:52;;;;;;;1.95;1.10;;;27.40;99.90;;;;;;6245185;23;20399;-79
2022/08/24 12:29:20;;;;;;;3.08;0.80;;;27.50;99.90;;;;;;6220705;23;20054;-78
2022/08/24 12:31:55;;;;;;;4.43;0.90;;;27.50;99.90;;;;;;6219037;23;20513;-79
2022/08/24 12:34:35;;;;;;;3.00;1.10;;;27.60;99.90;;;;;;6195421;23;20012;-79
2022/08/24 12:37:22;;;;;;;1.98;1.40;;;27.70;99.90;;;;;;6247555;23;20383;-79
2022/08/24 12:40:05;;;;;;;5.20;1.00;;;27.80;99.90;;;;;;6244348;23;20027;-79
2022/08/24 12:42:47;;;;;;;2.50;1.08;;;27.90;99.90;;;;;;6246956;23;20012;-79
2022/08/24 12:45:16;;;;;;;2.83;1.08;;;27.90;99.90;;;;;;6246599;23;20016;-79
2022/08/24 12:47:47;;;;;;;2.45;1.10;;;28.00;99.90;;;;;;6219311;23;20027;-79
2022/08/24 12:50:25;;;;;;;1.90;0.90;;;28.10;99.90;;;;;;6219799;23;20031;-79
2022/08/24 12:52:56;;;;;;;2.63;0.68;;;28.10;99.90;;;;;;6219326;23;20028;-79
2022/08/24 12:55:47;;;;;;;3.95;0.98;;;28.00;99.90;;;;;;6194204;23;20558;-79
2022/08/24 12:58:31;;;;;;;1.55;0.90;;;27.90;99.90;;;;;;6246004;23;20016;-79
2022/08/24 13:01:01;;;;;;;;;;;27.90;99.90;;;;;;6219241;23;20035;-79
2022/08/24 13:03:36;;;;;;;1.00;0.63;;;27.80;99.90;;;;;;6220155;23;20385;-79
2022/08/24 13:06:25;;;;;;;1.17;0.60;;;27.80;99.90;;;;;;6219620;23;20024;-79
2022/08/24 13:09:03;;;;;;;1.20;0.80;;;27.90;99.90;;;;;;6219114;23;20392;-79